createdAt,value
2022-12-06T00:02:28.249Z,-0.10
2022-12-06T00:04:58.935Z,-0.30
2022-12-06T00:07:30.927Z,-0.20
2022-12-06T00:10:01.651Z,0.00
2022-12-06T00:12:32.016Z,0.10
2022-12-06T00:15:03.046Z,-0.20
2022-12-06T00:17:41.524Z,0.00
2022-12-06T00:20:14.733Z,0.00
2022-12-06T00:22:47.750Z,0.10
2022-12-06T00:25:18.999Z,-0.10
2022-12-06T00:27:49.145Z,-0.20
2022-12-06T00:30:20.547Z,-0.10
2022-12-06T00:32:53.330Z,-0.10
2022-12-06T00:35:24.474Z,-0.20
2022-12-06T00:37:54.808Z,-0.10
2022-12-06T00:40:26.188Z,-0.20
2022-12-06T00:42:56.252Z,-0.10
2022-12-06T00:45:27.501Z,-0.20
2022-12-06T00:48:00.367Z,-0.30
2022-12-06T00:50:31.131Z,-0.30
2022-12-06T00:53:01.262Z,-0.30
2022-12-06T00:55:34.102Z,0.00
2022-12-06T00:58:04.470Z,-0.10
2022-12-06T01:00:35.455Z,-0.40
2022-12-06T01:03:08.350Z,-0.20
2022-12-06T01:05:44.339Z,-0.30
2022-12-06T01:08:15.274Z,0.00
2022-12-06T01:10:53.723Z,0.00
2022-12-06T01:13:24.370Z,-0.30
2022-12-06T01:15:54.890Z,-0.30
2022-12-06T01:18:27.931Z,-0.50
2022-12-06T01:20:58.222Z,-0.50
2022-12-06T01:23:28.425Z,0.00
2022-12-06T01:25:59.070Z,0.00
2022-12-06T01:28:29.158Z,-0.10
2022-12-06T01:31:00.452Z,-0.50
2022-12-06T01:33:33.377Z,-0.50
2022-12-06T01:36:04.288Z,-0.50
2022-12-06T01:38:35.084Z,-0.50
2022-12-06T01:41:06.164Z,0.00
2022-12-06T01:43:39.658Z,0.00
2022-12-06T01:46:23.301Z,-0.40
2022-12-06T01:48:59.246Z,-0.40
2022-12-06T01:51:30.098Z,-0.40
2022-12-06T01:54:04.327Z,-0.30
2022-12-06T01:56:35.551Z,-0.50
2022-12-06T01:59:06.560Z,-0.50
2022-12-06T02:01:38.353Z,-0.50
2022-12-06T02:04:13.009Z,-0.50
2022-12-06T02:06:44.962Z,-0.20
2022-12-06T02:09:16.587Z,-0.30
2022-12-06T02:11:47.733Z,-0.50
2022-12-06T02:14:22.820Z,-0.70
2022-12-06T02:17:08.323Z,-0.60
2022-12-06T02:20:04.201Z,-0.40
2022-12-06T02:22:49.147Z,-0.50
2022-12-06T02:25:49.191Z,-0.80
2022-12-06T02:28:40.742Z,-0.30
2022-12-06T02:31:18.302Z,-0.50
2022-12-06T02:33:52.556Z,-0.30
2022-12-06T02:36:31.101Z,-0.50
2022-12-06T02:39:06.430Z,-0.60
2022-12-06T02:41:40.699Z,-0.20
2022-12-06T02:44:19.765Z,-0.30
2022-12-06T02:46:56.491Z,-0.50
2022-12-06T02:49:29.226Z,-0.20
2022-12-06T02:52:01.191Z,-0.30
2022-12-06T02:54:33.004Z,-0.50
2022-12-06T02:57:04.037Z,-0.70
2022-12-06T02:59:35.681Z,-0.60
2022-12-06T03:02:14.439Z,-0.40
2022-12-06T03:04:55.306Z,-0.50
2022-12-06T03:07:42.895Z,-0.50
2022-12-06T03:10:38.332Z,-0.70
2022-12-06T03:13:19.772Z,-0.60
2022-12-06T03:15:59.420Z,-0.20
2022-12-06T03:18:39.936Z,-0.30
2022-12-06T03:21:14.556Z,-0.60
2022-12-06T03:23:49.657Z,-0.40
2022-12-06T03:26:25.319Z,-0.40
2022-12-06T03:28:59.939Z,-0.50
2022-12-06T03:31:34.888Z,-0.20
2022-12-06T03:34:14.386Z,-0.40
2022-12-06T03:36:48.725Z,-0.40
2022-12-06T03:39:27.089Z,-0.30
2022-12-06T03:42:03.797Z,-0.50
2022-12-06T03:44:37.069Z,-0.50
2022-12-06T03:47:13.047Z,-0.20
2022-12-06T03:49:51.740Z,-0.30
2022-12-06T03:52:22.890Z,-0.50
2022-12-06T03:54:53.778Z,-0.20
2022-12-06T03:57:24.858Z,-0.30
2022-12-06T03:59:55.492Z,-0.40
2022-12-06T04:02:27.261Z,-0.50
2022-12-06T04:05:00.416Z,-0.50
2022-12-06T04:07:32.873Z,-0.50
2022-12-06T04:10:05.682Z,-0.30
2022-12-06T04:12:51.102Z,-0.60
2022-12-06T04:15:23.916Z,-0.40
2022-12-06T04:18:07.039Z,-0.50
2022-12-06T04:20:56.526Z,-0.60
2022-12-06T04:23:26.661Z,-0.40
2022-12-06T04:25:58.064Z,-0.40
2022-12-06T04:28:40.542Z,-0.40
2022-12-06T04:31:23.199Z,-0.40
2022-12-06T04:34:05.851Z,-0.40
2022-12-06T04:36:51.388Z,-0.60
2022-12-06T04:39:21.490Z,-0.30
2022-12-06T04:42:04.982Z,-0.50
2022-12-06T04:44:34.920Z,-0.20
2022-12-06T04:47:05.902Z,-0.40
2022-12-06T04:49:37.495Z,-0.60
2022-12-06T04:52:12.060Z,-0.60
2022-12-06T04:54:42.707Z,-0.30
2022-12-06T04:57:15.734Z,-0.70
2022-12-06T04:59:47.129Z,-0.70
2022-12-06T05:02:19.247Z,-0.70
2022-12-06T05:04:49.225Z,-0.60
2022-12-06T05:07:22.388Z,-0.50
2022-12-06T05:09:52.747Z,-0.80
2022-12-06T05:12:23.011Z,-0.50
2022-12-06T05:14:52.925Z,-0.60
2022-12-06T05:17:24.284Z,-0.30
2022-12-06T05:19:55.839Z,-0.80
2022-12-06T05:22:28.729Z,-0.40
2022-12-06T05:24:58.629Z,-0.40
2022-12-06T05:27:34.406Z,-0.60
2022-12-06T05:30:06.642Z,-0.40
2022-12-06T05:32:37.630Z,-0.60
2022-12-06T05:35:12.743Z,-0.40
2022-12-06T05:37:48.295Z,-0.40
2022-12-06T05:40:21.206Z,-0.40
2022-12-06T05:42:52.243Z,-0.60
2022-12-06T05:45:22.390Z,-0.60
2022-12-06T05:47:52.765Z,-0.30
2022-12-06T05:50:22.726Z,-0.70
2022-12-06T05:53:00.691Z,-0.60
2022-12-06T05:55:31.289Z,-0.70
2022-12-06T05:58:01.579Z,-0.70
2022-12-06T06:00:31.743Z,-0.70
2022-12-06T06:03:02.341Z,-0.60
2022-12-06T06:05:43.790Z,-0.40
2022-12-06T06:08:16.440Z,-0.40
2022-12-06T06:10:46.573Z,-0.50
2022-12-06T06:13:17.149Z,-0.50
2022-12-06T06:15:47.119Z,-0.30
2022-12-06T06:18:17.985Z,-0.50
2022-12-06T06:20:52.583Z,-0.60
2022-12-06T06:23:27.864Z,-0.30
2022-12-06T06:25:58.118Z,-0.50
2022-12-06T06:28:28.699Z,-0.50
2022-12-06T06:30:58.650Z,-0.50
2022-12-06T06:33:29.272Z,-0.70
2022-12-06T06:35:59.296Z,-0.70
2022-12-06T06:38:32.686Z,-0.60
2022-12-06T06:41:05.387Z,-0.30
2022-12-06T06:43:36.662Z,-0.70
2022-12-06T06:46:09.686Z,-0.50
2022-12-06T06:48:42.066Z,-0.60
2022-12-06T06:51:14.872Z,-0.30
2022-12-06T06:53:48.280Z,-0.50
2022-12-06T06:56:18.316Z,-0.70
2022-12-06T06:58:48.660Z,-0.70
2022-12-06T07:01:21.435Z,-0.70
2022-12-06T07:03:54.360Z,-0.50
2022-12-06T07:06:24.847Z,-0.70
2022-12-06T07:08:58.189Z,-0.80
2022-12-06T07:11:28.128Z,-0.70
2022-12-06T07:13:58.454Z,-0.70
2022-12-06T07:16:28.739Z,-0.80
2022-12-06T07:18:59.020Z,-0.70
2022-12-06T07:21:29.512Z,-0.50
2022-12-06T07:24:02.680Z,-0.60
2022-12-06T07:26:33.690Z,-0.20
2022-12-06T07:29:03.762Z,-0.60
2022-12-06T07:31:34.481Z,-0.30
2022-12-06T07:34:06.626Z,-0.70
2022-12-06T07:36:37.415Z,-0.70
2022-12-06T07:39:14.451Z,-0.70
2022-12-06T07:41:58.335Z,-0.60
2022-12-06T07:45:08.758Z,-0.30
2022-12-06T07:47:41.598Z,-0.50
2022-12-06T07:50:17.878Z,-0.60
2022-12-06T07:52:49.939Z,-0.40
2022-12-06T07:55:22.642Z,-0.40
2022-12-06T07:57:53.589Z,-0.40
2022-12-06T08:00:24.370Z,-0.40
2022-12-06T08:02:54.950Z,-0.40
2022-12-06T08:05:24.866Z,-0.40
2022-12-06T08:07:56.240Z,-0.20
2022-12-06T08:10:28.861Z,-0.60
2022-12-06T08:12:59.441Z,-0.30
2022-12-06T08:15:29.470Z,-0.30
2022-12-06T08:18:00.493Z,-0.30
2022-12-06T08:20:30.426Z,-0.30
2022-12-06T08:23:01.369Z,-0.20
2022-12-06T08:25:33.883Z,-0.10
2022-12-06T08:28:05.011Z,-0.20
2022-12-06T08:30:36.133Z,-0.10
2022-12-06T08:33:07.049Z,-0.20
2022-12-06T08:35:40.424Z,-0.30
2022-12-06T08:38:11.917Z,-0.30
2022-12-06T08:40:44.552Z,-0.20
2022-12-06T08:43:15.131Z,-0.30
2022-12-06T08:45:45.079Z,0.00
2022-12-06T08:48:16.356Z,0.20
2022-12-06T08:50:46.290Z,-0.10
2022-12-06T08:53:17.324Z,-0.10
2022-12-06T08:56:02.775Z,0.10
2022-12-06T08:58:33.739Z,0.10
2022-12-06T09:01:03.842Z,-0.10
2022-12-06T09:03:34.085Z,0.10
2022-12-06T09:06:04.876Z,0.30
2022-12-06T09:08:34.898Z,0.20
2022-12-06T09:11:09.018Z,0.00
2022-12-06T09:13:40.571Z,0.10
2022-12-06T09:16:11.922Z,0.00
2022-12-06T09:18:42.233Z,0.30
2022-12-06T09:21:13.969Z,0.20
2022-12-06T09:23:44.781Z,0.20
2022-12-06T09:26:17.537Z,0.60
2022-12-06T09:28:52.557Z,0.60
2022-12-06T09:31:23.326Z,0.50
2022-12-06T09:33:54.407Z,0.40
2022-12-06T09:36:27.129Z,0.40
2022-12-06T09:39:03.303Z,0.50
2022-12-06T09:41:56.930Z,0.40
2022-12-06T09:44:49.034Z,0.50
2022-12-06T09:47:32.818Z,0.40
2022-12-06T09:50:13.523Z,0.80
2022-12-06T09:53:08.950Z,0.80
2022-12-06T09:55:54.435Z,0.90
2022-12-06T09:58:39.863Z,1.10
2022-12-06T10:01:25.739Z,0.90
2022-12-06T10:04:15.456Z,0.70
2022-12-06T10:06:53.436Z,0.70
2022-12-06T10:09:36.251Z,0.50
2022-12-06T10:12:19.582Z,1.20
2022-12-06T10:15:07.775Z,1.20
2022-12-06T10:17:51.950Z,1.10
2022-12-06T10:20:33.081Z,1.30
2022-12-06T10:23:16.653Z,1.40
2022-12-06T10:25:56.248Z,1.50
2022-12-06T10:28:34.093Z,1.00
2022-12-06T10:31:16.559Z,1.50
2022-12-06T10:34:00.147Z,1.20
2022-12-06T10:36:43.200Z,1.00
2022-12-06T10:39:23.180Z,1.20
2022-12-06T10:42:00.577Z,1.40
2022-12-06T10:44:37.449Z,1.50
2022-12-06T10:47:14.219Z,1.20
2022-12-06T10:49:52.328Z,1.50
2022-12-06T10:52:37.084Z,1.40
2022-12-06T10:55:22.636Z,1.50
2022-12-06T10:57:58.293Z,1.70
2022-12-06T11:00:30.585Z,1.40
2022-12-06T11:03:13.016Z,1.40
2022-12-06T11:09:38.979Z,1.20
2022-12-06T11:12:26.581Z,1.80
2022-12-06T11:15:07.761Z,1.60
2022-12-06T11:17:42.701Z,1.70
2022-12-06T11:20:25.929Z,2.00
2022-12-06T11:23:08.184Z,2.20
2022-12-06T11:26:02.012Z,1.90
2022-12-06T11:28:39.703Z,2.20
2022-12-06T11:31:18.967Z,1.60
2022-12-06T11:33:49.532Z,1.80
2022-12-06T11:36:24.320Z,1.60
2022-12-06T11:38:55.823Z,1.60
2022-12-06T11:41:29.273Z,1.60
2022-12-06T11:44:01.025Z,1.40
2022-12-06T11:46:32.117Z,1.70
2022-12-06T11:49:14.147Z,1.50
2022-12-06T11:51:46.717Z,1.50
2022-12-06T11:54:25.452Z,1.30
2022-12-06T11:56:57.121Z,1.40
2022-12-06T11:59:32.062Z,1.50
2022-12-06T12:02:03.798Z,1.70
2022-12-06T12:04:38.746Z,1.70
2022-12-06T12:07:16.659Z,1.70
2022-12-06T12:09:54.229Z,1.50
2022-12-06T12:12:46.474Z,1.60
2022-12-06T12:15:20.962Z,1.60
2022-12-06T12:17:54.520Z,1.60
2022-12-06T12:20:28.710Z,1.50
2022-12-06T12:23:05.101Z,1.60
2022-12-06T12:25:42.596Z,1.40
2022-12-06T12:28:28.375Z,1.40
2022-12-06T12:30:59.494Z,1.20
2022-12-06T12:33:31.031Z,1.20
2022-12-06T12:36:17.685Z,1.20
2022-12-06T12:38:57.688Z,1.40
2022-12-06T12:41:34.446Z,1.20
2022-12-06T12:47:00.398Z,1.20
2022-12-06T12:49:35.000Z,1.40
2022-12-06T12:52:07.836Z,1.40
2022-12-06T12:54:41.182Z,0.90
2022-12-06T12:57:16.146Z,1.00
2022-12-06T12:59:47.016Z,1.00
2022-12-06T13:02:24.682Z,0.90
2022-12-06T13:05:30.869Z,0.70
2022-12-06T13:07:53.910Z,1.00
2022-12-06T13:10:33.635Z,0.70
2022-12-06T13:13:06.760Z,0.70
2022-12-06T13:15:40.011Z,1.00
2022-12-06T13:18:15.761Z,1.10
2022-12-06T13:20:46.799Z,1.10
2022-12-06T13:23:19.625Z,1.10
2022-12-06T13:25:57.948Z,0.80
2022-12-06T13:28:32.452Z,1.00
2022-12-06T13:31:06.570Z,1.00
2022-12-06T13:33:44.941Z,0.80
2022-12-06T13:36:17.813Z,0.90
2022-12-06T13:38:49.131Z,0.70
2022-12-06T13:42:07.886Z,0.70
2022-12-06T13:44:45.286Z,0.70
2022-12-06T13:47:43.599Z,0.80
2022-12-06T13:50:43.873Z,1.10
2022-12-06T13:53:13.977Z,1.10
2022-12-06T13:56:23.925Z,0.90
2022-12-06T13:59:02.411Z,0.90
2022-12-06T14:01:42.343Z,1.10
2022-12-06T14:04:38.033Z,0.80
2022-12-06T14:09:44.153Z,0.70
2022-12-06T14:12:22.159Z,0.60
2022-12-06T14:15:03.773Z,0.90
2022-12-06T14:20:34.138Z,0.70
2022-12-06T14:23:04.287Z,0.70
2022-12-06T14:25:34.542Z,0.70
2022-12-06T14:28:07.525Z,0.50
2022-12-06T14:30:41.219Z,0.70
2022-12-06T14:33:21.493Z,0.70
2022-12-06T14:35:54.282Z,0.70
2022-12-06T14:38:27.024Z,0.70
2022-12-06T14:41:10.726Z,0.70
2022-12-06T14:43:42.336Z,0.60
2022-12-06T14:46:19.757Z,0.90
2022-12-06T14:49:02.736Z,0.80
2022-12-06T14:51:41.067Z,0.90
2022-12-06T14:54:22.706Z,0.70
2022-12-06T14:56:52.691Z,0.70
2022-12-06T15:00:12.799Z,0.80
2022-12-06T15:02:28.453Z,0.80
2022-12-06T15:04:59.016Z,0.70
2022-12-06T15:07:41.312Z,0.90
2022-12-06T15:10:19.737Z,0.70
2022-12-06T15:12:56.183Z,0.90
2022-12-06T15:15:40.886Z,0.60
2022-12-06T15:18:26.665Z,0.90
2022-12-06T15:20:58.240Z,0.60
2022-12-06T15:23:38.364Z,0.50
2022-12-06T15:26:13.433Z,0.60
2022-12-06T15:28:44.089Z,0.80
2022-12-06T15:31:19.847Z,0.50
2022-12-06T15:33:52.648Z,0.60
2022-12-06T15:36:25.377Z,0.30
2022-12-06T15:38:55.800Z,0.70
2022-12-06T15:41:29.218Z,0.40
2022-12-06T15:43:59.867Z,0.40
2022-12-06T15:46:33.222Z,0.60
2022-12-06T15:49:06.233Z,0.30
2022-12-06T15:51:36.245Z,0.70
2022-12-06T15:54:07.327Z,0.50
2022-12-06T15:56:37.773Z,0.50
2022-12-06T15:59:07.793Z,0.70
2022-12-06T16:01:44.866Z,0.60
2022-12-06T16:04:22.749Z,0.30
2022-12-06T16:06:53.183Z,0.70
2022-12-06T16:09:23.497Z,0.40
2022-12-06T16:11:53.683Z,0.30
2022-12-06T16:14:24.011Z,0.50
2022-12-06T16:16:54.006Z,0.60
2022-12-06T16:19:47.004Z,0.30
2022-12-06T16:22:17.048Z,0.50
2022-12-06T16:24:46.254Z,0.50
2022-12-06T16:27:20.433Z,0.40
2022-12-06T16:29:50.813Z,0.70
2022-12-06T16:32:21.294Z,0.50
2022-12-06T16:34:55.822Z,0.40
2022-12-06T16:37:26.137Z,0.60
2022-12-06T16:39:56.601Z,0.40
2022-12-06T16:42:26.616Z,0.70
2022-12-06T16:44:57.331Z,0.60
2022-12-06T16:49:59.299Z,0.70
2022-12-06T16:52:29.289Z,0.70
2022-12-06T16:55:00.723Z,0.60
2022-12-06T16:57:31.246Z,0.30
2022-12-06T17:00:01.517Z,0.50
2022-12-06T17:02:34.056Z,0.70
2022-12-06T17:05:08.926Z,0.60
2022-12-06T17:07:41.069Z,0.50
2022-12-06T17:10:13.063Z,0.60
2022-12-06T17:12:43.166Z,0.50
2022-12-06T17:15:16.772Z,0.70
2022-12-06T17:17:47.286Z,0.60
2022-12-06T17:20:21.905Z,0.70
2022-12-06T17:22:54.768Z,0.80
2022-12-06T17:25:26.064Z,0.50
2022-12-06T17:27:56.034Z,0.70
2022-12-06T17:30:26.881Z,0.90
2022-12-06T17:32:56.881Z,0.50
2022-12-06T17:35:32.432Z,0.70
2022-12-06T17:38:02.746Z,0.50
2022-12-06T17:40:33.456Z,0.70
2022-12-06T17:43:00.892Z,0.90
2022-12-06T17:45:31.669Z,0.70
2022-12-06T17:48:02.510Z,0.80
2022-12-06T17:50:35.910Z,0.50
2022-12-06T17:53:06.012Z,0.80
2022-12-06T17:55:36.986Z,0.40
2022-12-06T17:58:06.981Z,0.90
2022-12-06T18:00:38.103Z,0.80
2022-12-06T18:03:08.119Z,0.40
2022-12-06T18:05:42.090Z,0.50
2022-12-06T18:08:12.061Z,0.50
2022-12-06T18:10:42.839Z,0.40
2022-12-06T18:13:12.789Z,0.60
2022-12-06T18:15:44.273Z,0.60
2022-12-06T18:18:14.246Z,0.30
2022-12-06T18:20:47.719Z,0.70
2022-12-06T18:23:17.731Z,0.60
2022-12-06T18:25:49.205Z,0.50
2022-12-06T18:28:19.185Z,0.40
2022-12-06T18:30:49.560Z,0.30
2022-12-06T18:33:22.559Z,0.40
2022-12-06T18:35:57.496Z,0.70
2022-12-06T18:38:27.451Z,0.60
2022-12-06T18:41:04.862Z,0.30
2022-12-06T18:43:35.875Z,0.50
2022-12-06T18:46:09.609Z,0.40
2022-12-06T18:48:41.736Z,0.30
2022-12-06T18:51:18.288Z,0.50
2022-12-06T18:53:48.672Z,0.50
2022-12-06T18:56:21.116Z,0.40
2022-12-06T18:58:52.408Z,0.50
2022-12-06T19:01:25.246Z,0.50
2022-12-06T19:03:55.805Z,0.60
2022-12-06T19:06:31.128Z,0.40
2022-12-06T19:09:04.322Z,0.30
2022-12-06T19:11:34.642Z,0.50
2022-12-06T19:14:04.588Z,0.50
2022-12-06T19:16:38.510Z,0.50
2022-12-06T19:19:15.821Z,0.60
2022-12-06T19:21:49.839Z,0.50
2022-12-06T19:24:23.922Z,0.60
2022-12-06T19:26:55.709Z,0.30
2022-12-06T19:29:26.104Z,0.60
2022-12-06T19:31:56.861Z,0.30
2022-12-06T19:34:30.275Z,0.30
2022-12-06T19:37:02.844Z,0.60
2022-12-06T19:39:32.779Z,0.50
2022-12-06T19:42:15.933Z,0.30
2022-12-06T19:44:45.925Z,0.70
2022-12-06T19:47:16.720Z,0.60
2022-12-06T19:49:46.814Z,0.60
2022-12-06T19:52:19.805Z,0.60
2022-12-06T19:54:49.807Z,0.40
2022-12-06T19:57:20.146Z,0.60
2022-12-06T19:59:51.541Z,0.30
2022-12-06T20:02:21.966Z,0.60
2022-12-06T20:04:51.933Z,0.40
2022-12-06T20:07:25.049Z,0.30
2022-12-06T20:09:55.027Z,0.60
2022-12-06T20:12:25.200Z,0.30
2022-12-06T20:14:55.232Z,0.60
2022-12-06T20:17:26.526Z,0.40
2022-12-06T20:20:01.450Z,0.80
2022-12-06T20:22:34.637Z,0.30
2022-12-06T20:25:04.581Z,0.40
2022-12-06T20:27:59.385Z,0.30
2022-12-06T20:30:31.839Z,0.40
2022-12-06T20:33:02.691Z,0.30
2022-12-06T20:35:32.663Z,0.80
2022-12-06T20:38:06.138Z,0.50
2022-12-06T20:40:37.509Z,0.40
2022-12-06T20:43:07.983Z,0.80
2022-12-06T20:45:38.037Z,0.50
2022-12-06T20:48:08.970Z,0.50
2022-12-06T20:50:41.913Z,0.70
2022-12-06T20:53:15.585Z,0.80
2022-12-06T20:55:45.602Z,0.30
2022-12-06T20:58:15.564Z,0.50
2022-12-06T21:00:46.094Z,0.60
2022-12-06T21:03:16.137Z,0.30
2022-12-06T21:05:49.794Z,0.70
2022-12-06T21:08:26.764Z,0.40
2022-12-06T21:11:22.177Z,0.30
2022-12-06T21:13:48.432Z,0.70
2022-12-06T21:16:21.345Z,0.60
2022-12-06T21:18:51.427Z,0.30
2022-12-06T21:21:26.742Z,0.30
2022-12-06T21:24:01.442Z,0.30
2022-12-06T21:26:32.192Z,0.60
2022-12-06T21:29:02.511Z,0.40
2022-12-06T21:31:34.168Z,0.20
2022-12-06T21:34:05.538Z,0.40
2022-12-06T21:36:36.777Z,0.30
2022-12-06T21:39:09.773Z,0.70
2022-12-06T21:41:41.394Z,0.40
2022-12-06T21:44:11.338Z,0.40
2022-12-06T21:46:42.009Z,0.20
2022-12-06T21:49:12.927Z,0.30
2022-12-06T21:51:44.253Z,0.60
2022-12-06T21:54:16.805Z,0.60
2022-12-06T21:56:47.103Z,0.50
2022-12-06T21:59:17.074Z,0.60
2022-12-06T22:01:47.625Z,0.30
2022-12-06T22:04:18.846Z,0.30
2022-12-06T22:06:49.235Z,0.60
2022-12-06T22:09:21.807Z,0.30
2022-12-06T22:11:52.509Z,0.40
2022-12-06T22:14:22.455Z,0.60
2022-12-06T22:16:53.166Z,0.30
2022-12-06T22:19:23.179Z,0.30
2022-12-06T22:21:54.171Z,0.60
2022-12-06T22:24:27.005Z,0.40
2022-12-06T22:26:57.799Z,0.30
2022-12-06T22:29:27.954Z,0.60
2022-12-06T22:31:58.929Z,0.30
2022-12-06T22:34:28.916Z,0.60
2022-12-06T22:36:58.926Z,0.30
2022-12-06T22:39:32.440Z,0.50
2022-12-06T22:42:03.771Z,0.60
2022-12-06T22:44:33.753Z,0.30
2022-12-06T22:47:04.154Z,0.70
2022-12-06T22:49:34.121Z,0.60
2022-12-06T22:52:04.385Z,0.50
2022-12-06T22:54:37.094Z,0.30
2022-12-06T22:57:07.626Z,0.30
2022-12-06T22:59:37.620Z,0.60
2022-12-06T23:02:08.259Z,0.20
2022-12-06T23:04:38.309Z,0.70
2022-12-06T23:07:08.986Z,0.50
2022-12-06T23:09:41.943Z,0.50
2022-12-06T23:12:12.985Z,0.50
2022-12-06T23:14:43.146Z,0.30
2022-12-06T23:17:13.800Z,0.50
2022-12-06T23:19:43.832Z,0.50
2022-12-06T23:22:14.626Z,0.60
2022-12-06T23:24:47.178Z,0.40
2022-12-06T23:27:17.678Z,0.60
2022-12-06T23:29:47.702Z,0.70
2022-12-06T23:32:19.531Z,0.40
2022-12-06T23:34:49.503Z,0.60
2022-12-06T23:37:20.143Z,0.30
2022-12-06T23:39:52.683Z,0.60
2022-12-06T23:42:23.936Z,0.30
2022-12-06T23:44:53.855Z,0.40
2022-12-06T23:47:24.585Z,0.40
2022-12-06T23:49:54.531Z,0.00
2022-12-06T23:52:25.313Z,0.10
2022-12-06T23:54:59.608Z,0.60
2022-12-06T23:57:30.697Z,0.00
